»·PEaware :: PHKIM KTRM-KKNB

PHKIM :: KTRM-KKNB

FLIGHT INFORMATION

Flight Status: Arrived
Operator: Unknown
More flights by this operator :: More flights under this callsign
Pilot: Kim B. (19519)
Aircraft: BEECH AIRCRAFT A90-E90 KING AIR
(BE9L)
More flights by this aircraft type
Origin: KTRM Desert Resorts Regl
United States
Destination: KKNB Kanab Mun
United States
More flights between these airports :: More routes between these airports
Route: +MECCA1 TNP EED PGS
File this flight plan on PilotEdge
Remarks:
Altitude:
(Current/Filed)
23,000ft
Speed:
(Current/Filed)
180kts
Departed: 27-Oct-18 05:27 PM
Arrived: 27-Oct-18 06:52 PM
Distance/Time
Traveled:
270nm/1:25
Distance/Time
To Go:
Arrived

Flight Plot

Page will automatically refresh every two minutes.

Flight plan parsing failed; only flown route is shown


Map Options




Map Legend


Flown Route
Filed Route
Departure Airport
Arrival Airport
Navaid (VOR, NDB)
Fix

Horizontal Profiles

Position Reports

Time Latitude Longitude Heading Altitude Ground
Speed
27-Oct-18 17:14 33.637613 -116.158593 268 -112ft 0kts
27-Oct-18 17:15 33.637613 -116.158593 268 -112ft 0kts
27-Oct-18 17:16 33.637613 -116.158593 268 -112ft 0kts
27-Oct-18 17:17 33.637613 -116.158593 268 -112ft 0kts
27-Oct-18 17:18 33.637613 -116.158593 268 -112ft 0kts
27-Oct-18 17:19 33.637613 -116.158593 268 -112ft 0kts
27-Oct-18 17:20 33.637613 -116.158593 268 -112ft 0kts
27-Oct-18 17:21 33.637613 -116.158593 268 -112ft 0kts
27-Oct-18 17:22 33.637613 -116.158593 268 -112ft 0kts
27-Oct-18 17:23 33.637613 -116.158593 268 -112ft 0kts
27-Oct-18 17:24 33.637613 -116.158593 268 -112ft 0kts
27-Oct-18 17:25 33.637613 -116.158593 268 -112ft 0kts
27-Oct-18 17:26 33.639032 -116.157362 96 -112ft 4kts
27-Oct-18 17:27 33.639031 -116.157337 90 -112ft 0kts
27-Oct-18 17:28 33.638968 -116.156444 174 -112ft 0kts
27-Oct-18 17:29 33.614024 -116.157690 177 316ft 162kts
27-Oct-18 17:30 33.576563 -116.123915 147 1950ft 171kts
27-Oct-18 17:31 33.536373 -116.094064 141 3633ft 174kts
27-Oct-18 17:32 33.558653 -116.062047 323 4742ft 194kts
27-Oct-18 17:33 33.589824 -116.110163 310 6297ft 183kts
27-Oct-18 17:35 33.626300 -116.152414 345 7423ft 197kts
27-Oct-18 17:36 33.673482 -116.123827 32 8646ft 192kts
27-Oct-18 17:37 33.717767 -116.088336 32 9763ft 192kts
27-Oct-18 17:38 33.761838 -116.052947 32 10884ft 190kts
27-Oct-18 17:39 33.805859 -116.017552 32 11877ft 191kts
27-Oct-18 17:40 33.850043 -115.981968 31 12773ft 193kts
27-Oct-18 17:41 33.894914 -115.945783 31 13607ft 195kts
27-Oct-18 17:41 33.932531 -115.915418 31 14247ft 197kts
27-Oct-18 17:43 33.985852 -115.872323 31 15081ft 199kts
27-Oct-18 17:43 34.024115 -115.841358 31 15631ft 200kts
27-Oct-18 17:45 34.078182 -115.797552 31 16347ft 202kts
27-Oct-18 17:45 34.108070 -115.773257 33 16713ft 203kts
27-Oct-18 17:47 34.150069 -115.710100 50 17298ft 207kts
27-Oct-18 17:47 34.180695 -115.661793 50 17347ft 219kts
27-Oct-18 17:49 34.233415 -115.606094 17 17495ft 215kts
27-Oct-18 17:49 34.281335 -115.586091 16 17523ft 222kts
27-Oct-18 17:50 34.317407 -115.525971 62 16844ft 227kts
27-Oct-18 17:51 34.346779 -115.457089 61 15769ft 235kts
27-Oct-18 17:52 34.378277 -115.384095 61 14045ft 246kts
27-Oct-18 17:53 34.409543 -115.311587 61 12312ft 242kts
27-Oct-18 17:54 34.439443 -115.242111 61 11121ft 225kts
27-Oct-18 17:55 34.465632 -115.181198 61 11114ft 197kts
27-Oct-18 17:56 34.490993 -115.122075 60 10961ft 197kts
27-Oct-18 17:57 34.516539 -115.062443 60 11236ft 202kts
27-Oct-18 17:58 34.544386 -114.997236 60 11266ft 215kts
27-Oct-18 17:59 34.571887 -114.932762 59 11511ft 216kts
27-Oct-18 18:00 34.599173 -114.868680 60 11348ft 229kts
27-Oct-18 18:01 34.621155 -114.796242 73 11225ft 226kts
27-Oct-18 18:02 34.644466 -114.728083 46 10903ft 221kts
27-Oct-18 18:03 34.680140 -114.673361 56 11245ft 206kts
27-Oct-18 18:04 34.707900 -114.611600 59 11268ft 209kts
27-Oct-18 18:05 34.734245 -114.549552 59 11407ft 207kts
27-Oct-18 18:06 34.760783 -114.486551 59 11281ft 216kts
27-Oct-18 18:07 34.803507 -114.434132 38 10924ft 210kts
27-Oct-18 18:08 34.847450 -114.387109 38 10925ft 211kts
27-Oct-18 18:09 34.883421 -114.348599 39 10923ft 211kts
27-Oct-18 18:10 34.923424 -114.305717 38 10920ft 212kts
27-Oct-18 18:11 34.967755 -114.258140 38 10989ft 212kts
27-Oct-18 18:12 35.012404 -114.210148 38 11002ft 216kts
27-Oct-18 18:13 35.057737 -114.161348 38 11037ft 218kts
27-Oct-18 18:14 35.103304 -114.112213 38 11092ft 220kts
27-Oct-18 18:15 35.149150 -114.062700 38 11122ft 221kts
27-Oct-18 18:16 35.192208 -114.016126 38 11136ft 222kts
27-Oct-18 18:17 35.237594 -113.966961 38 11137ft 223kts
27-Oct-18 18:18 35.282717 -113.918006 38 11137ft 223kts
27-Oct-18 18:19 35.329366 -113.867318 38 11016ft 228kts
27-Oct-18 18:20 35.376831 -113.815637 38 10991ft 230kts
27-Oct-18 18:21 35.424901 -113.763226 38 10991ft 232kts
27-Oct-18 18:22 35.471557 -113.712277 38 10991ft 232kts
27-Oct-18 18:23 35.510905 -113.669245 38 10991ft 232kts
27-Oct-18 18:24 35.558625 -113.616979 38 10991ft 232kts
27-Oct-18 18:25 35.606146 -113.564843 38 10992ft 232kts
27-Oct-18 18:26 35.645959 -113.528369 28 10992ft 230kts
27-Oct-18 18:27 35.698616 -113.488288 28 10992ft 230kts
27-Oct-18 18:28 35.751330 -113.448144 28 10992ft 230kts
27-Oct-18 18:29 35.804827 -113.407343 28 10992ft 230kts
27-Oct-18 18:30 35.858386 -113.366429 28 10992ft 230kts
27-Oct-18 18:31 35.910370 -113.326659 28 10989ft 230kts
27-Oct-18 18:32 35.964054 -113.285516 28 10824ft 233kts
27-Oct-18 18:33 36.015356 -113.246138 28 10847ft 229kts
27-Oct-18 18:34 36.068019 -113.205654 28 10888ft 227kts
27-Oct-18 18:35 36.121003 -113.164857 28 10912ft 226kts
27-Oct-18 18:36 36.174313 -113.123743 28 10917ft 226kts
27-Oct-18 18:37 36.226965 -113.083071 28 10917ft 226kts
27-Oct-18 18:38 36.279718 -113.042254 28 10917ft 226kts
27-Oct-18 18:39 36.332789 -113.001129 28 10917ft 226kts
27-Oct-18 18:40 36.385778 -112.959997 28 10917ft 225kts
27-Oct-18 18:41 36.439009 -112.918610 29 10866ft 228kts
27-Oct-18 18:42 36.493769 -112.875952 29 10072ft 232kts
27-Oct-18 18:43 36.547515 -112.834017 29 9599ft 219kts
27-Oct-18 18:44 36.597236 -112.795190 29 9600ft 209kts
27-Oct-18 18:45 36.645917 -112.757099 29 9600ft 206kts
27-Oct-18 18:46 36.694437 -112.719073 29 9600ft 206kts
27-Oct-18 18:47 36.742801 -112.681111 29 9600ft 206kts
27-Oct-18 18:48 36.791262 -112.643016 29 9600ft 205kts
27-Oct-18 18:49 36.842622 -112.616258 10 9544ft 197kts
27-Oct-18 18:50 36.893406 -112.591870 27 7546ft 192kts
27-Oct-18 18:51 36.931730 -112.566845 19 6123ft 136kts
27-Oct-18 18:52 36.963956 -112.552018 14 5763ft 129kts
27-Oct-18 18:53 36.995726 -112.538394 17 4968ft 94kts
27-Oct-18 18:54 37.010249 -112.530309 66 4835ft 7kts
27-Oct-18 18:55 37.010657 -112.529478 340 4839ft 0kts
27-Oct-18 18:56 37.010657 -112.529478 340 4839ft 0kts
27-Oct-18 18:57 37.010657 -112.529478 340 4839ft 0kts
27-Oct-18 18:58 37.010657 -112.529478 340 4839ft 0kts
27-Oct-18 18:59 37.010657 -112.529478 340 4839ft 0kts

Navigation Log

Ident Type
Flight plan parsing failed, navigation log unavailable